Time;durP1;ratioP1;P1;durP2;ratioP2;P2;SDS_P1;SDS_P2;PMS_P1;PMS_P2;Temp;Humidity;BMP_temperature;BMP_pressure;BME280_temperature;BME280_humidity;BME280_pressure;Samples;Min_cycle;Max_cycle;Signal;HPM_P1;HPM_P2
2022/08/24 00:01:47;;;;;;;1.02;0.50;;;;;;;28.11;36.85;96559.78;5094117;28;20470;-34
2022/08/24 00:04:12;;;;;;;0.50;0.40;;;;;;;28.11;36.85;96562.56;5094244;28;20462;-34
2022/08/24 00:06:37;;;;;;;0.50;0.50;;;;;;;28.09;36.82;96560.31;5094174;28;20022;-35
2022/08/24 00:09:04;;;;;;;0.80;0.45;;;;;;;28.09;36.98;96567.94;5094317;28;20477;-34
2022/08/24 00:11:30;;;;;;;0.45;0.40;;;;;;;28.10;36.60;96572.22;5093019;28;20103;-34
2022/08/24 00:13:56;;;;;;;0.65;0.43;;;;;;;28.12;36.81;96575.97;5093910;28;20104;-35
2022/08/24 00:16:22;;;;;;;1.10;0.50;;;;;;;28.10;36.72;96570.19;5093808;28;20038;-34
2022/08/24 00:18:48;;;;;;;0.65;0.55;;;;;;;28.10;36.93;96566.66;5094171;28;20020;-35
2022/08/24 00:21:14;;;;;;;0.60;0.50;;;;;;;28.10;36.86;96570.19;5093918;28;20476;-34
2022/08/24 00:23:40;;;;;;;0.50;0.50;;;;;;;28.11;36.81;96571.69;5093829;28;20103;-35
2022/08/24 00:26:06;;;;;;;0.55;0.55;;;;;;;28.00;37.19;96563.56;5093689;28;20450;-34
2022/08/24 00:28:33;;;;;;;0.95;0.60;;;;;;;28.06;37.25;96561.41;5093896;28;20473;-34
2022/08/24 00:30:59;;;;;;;0.50;0.50;;;;;;;28.05;37.13;96561.97;5093692;28;20028;-34
2022/08/24 00:33:25;;;;;;;0.50;0.47;;;;;;;28.05;37.30;96561.97;5093805;28;20473;-34
2022/08/24 00:35:50;;;;;;;0.63;0.47;;;;;;;28.01;37.23;96558.75;5093557;28;20020;-34
2022/08/24 00:38:16;;;;;;;1.00;0.70;;;;;;;28.01;37.06;96553.91;5093485;28;20026;-35
2022/08/24 00:40:45;;;;;;;1.58;0.50;;;;;;;27.99;37.27;96555.75;5093522;28;20033;-34
2022/08/24 00:43:11;;;;;;;0.60;0.60;;;;;;;28.04;37.24;96557.66;5093602;28;20056;-34
2022/08/24 00:46:00;;;;;;;0.68;0.50;;;;;;;27.95;37.34;96556.06;5093503;28;20031;-36
2022/08/24 00:48:30;;;;;;;0.40;0.40;;;;;;;27.94;37.35;96565.00;5093499;28;20043;-34
2022/08/24 00:51:02;;;;;;;0.45;0.45;;;;;;;28.01;37.30;96561.53;5093667;28;20074;-34
2022/08/24 00:53:50;;;;;;;0.95;0.50;;;;;;;28.05;37.36;96554.34;5093569;28;20028;-34
2022/08/24 00:56:38;;;;;;;0.60;0.60;;;;;;;28.00;37.26;96563.56;5092768;28;20071;-34
2022/08/24 00:59:15;;;;;;;1.35;0.50;;;;;;;28.04;37.25;96569.56;5093506;28;20469;-35
2022/08/24 01:01:43;;;;;;;0.73;0.50;;;;;;;28.06;37.37;96566.25;5093248;28;20024;-34
2022/08/24 01:04:15;;;;;;;0.55;0.40;;;;;;;27.97;37.47;96564.63;5093342;28;20389;-34
2022/08/24 01:06:41;;;;;;;0.57;0.50;;;;;;;28.01;37.52;96558.75;5093211;28;20032;-34
2022/08/24 01:09:06;;;;;;;0.30;0.30;;;;;;;27.99;37.46;96556.50;5075251;28;20135;-34
2022/08/24 01:11:34;;;;;;;0.50;0.40;;;;;;;28.00;37.34;96563.56;5093159;28;20529;-34
2022/08/24 01:14:02;;;;;;;0.40;0.40;;;;;;;27.93;37.65;96558.66;5093311;28;20028;-34
2022/08/24 01:19:34;;;;;;;0.65;0.40;;;;;;;27.98;37.56;96560.56;5093316;28;20038;-34
2022/08/24 01:22:33;;;;;;;0.60;0.40;;;;;;;27.99;37.28;96550.91;5093345;28;20028;-34
2022/08/24 01:24:59;;;;;;;0.70;0.50;;;;;;;27.99;37.47;96555.75;5097358;28;20039;-34
2022/08/24 01:27:25;;;;;;;0.40;0.40;;;;;;;27.93;37.42;96549.56;5097060;28;20454;-34
2022/08/24 01:29:50;;;;;;;0.57;0.45;;;;;;;27.99;37.27;96542.56;5097054;28;20028;-34
2022/08/24 01:32:18;;;;;;;1.23;0.70;;;;;;;27.93;37.59;96544.72;5097310;28;20107;-34
2022/08/24 01:34:44;;;;;;;0.57;0.40;;;;;;;27.95;37.60;96552.53;5096959;28;20474;-34
2022/08/24 01:37:10;;;;;;;0.95;0.50;;;;;;;27.85;37.81;96552.25;5097011;28;20045;-34
2022/08/24 01:39:40;;;;;;;0.50;0.40;;;;;;;27.97;37.75;96547.91;5097158;28;20394;-34
2022/08/24 01:42:06;;;;;;;0.88;0.40;;;;;;;27.80;37.99;96553.88;5096728;28;20020;-33
2022/08/24 01:44:35;;;;;;;1.50;0.60;;;;;;;27.88;38.04;96546.34;5097071;28;20078;-37
2022/08/24 01:47:01;;;;;;;0.65;0.50;;;;;;;27.86;38.07;96553.75;5097145;28;20073;-34
2022/08/24 01:49:30;;;;;;;0.93;0.57;;;;;;;27.94;37.85;96543.44;5096735;28;20032;-34
2022/08/24 01:51:56;;;;;;;0.85;0.50;;;;;;;27.91;37.80;96544.50;5096705;28;20024;-34
2022/08/24 01:54:21;;;;;;;0.63;0.50;;;;;;;27.93;37.73;96543.97;5096514;28;20363;-34
2022/08/24 01:56:47;;;;;;;0.50;0.50;;;;;;;27.93;37.80;96547.53;5096525;28;20028;-34
2022/08/24 01:59:13;;;;;;;2.38;0.50;;;;;;;27.85;37.79;96546.66;5096534;28;20028;-34
2022/08/24 02:01:45;;;;;;;1.10;0.82;;;;;;;27.87;37.84;96544.84;5096521;28;20394;-34
2022/08/24 02:04:11;;;;;;;0.50;0.50;;;;;;;27.90;37.79;96545.81;5096447;28;20036;-34
2022/08/24 02:06:37;;;;;;;0.45;0.45;;;;;;;27.84;38.11;96523.63;5096345;28;20031;-34
2022/08/24 02:09:04;;;;;;;0.65;0.50;;;;;;;27.86;37.95;96537.00;5096422;28;20085;-34
2022/08/24 02:11:31;;;;;;;0.52;0.38;;;;;;;27.79;38.32;96532.13;5096280;28;20035;-34
2022/08/24 02:13:57;;;;;;;0.60;0.50;;;;;;;27.75;38.25;96529.66;5096303;28;20023;-34
2022/08/24 02:16:22;;;;;;;0.63;0.50;;;;;;;27.79;38.28;96532.13;5096205;28;20436;-34
2022/08/24 02:18:48;;;;;;;0.50;0.43;;;;;;;27.71;38.07;96536.81;5096217;28;20020;-34
2022/08/24 02:21:15;;;;;;;0.70;0.50;;;;;;;27.86;37.92;96534.97;5096402;28;20019;-34
2022/08/24 02:23:42;;;;;;;0.40;0.40;;;;;;;27.76;38.13;96536.72;5096283;28;20408;-34
2022/08/24 02:26:09;;;;;;;0.50;0.40;;;;;;;27.78;38.21;96541.75;5096179;28;20099;-34
2022/08/24 02:28:37;;;;;;;0.40;0.40;;;;;;;27.85;38.12;96538.31;5096106;28;20046;-34
2022/08/24 02:31:04;;;;;;;0.50;0.50;;;;;;;27.84;38.01;96536.81;5096012;28;20028;-34
2022/08/24 02:33:31;;;;;;;0.65;0.50;;;;;;;27.91;37.82;96544.50;5095918;28;20099;-34
2022/08/24 02:35:56;;;;;;;0.52;0.40;;;;;;;27.91;37.80;96538.94;5094957;28;20027;-34
2022/08/24 02:38:22;;;;;;;0.50;0.50;;;;;;;27.90;38.01;96543.00;5095893;28;20024;-34
2022/08/24 02:40:48;;;;;;;1.27;0.60;;;;;;;27.82;37.92;96536.59;5095729;28;20020;-34
2022/08/24 02:43:14;;;;;;;0.40;0.40;;;;;;;27.46;38.98;96534.25;5095515;28;20052;-34
2022/08/24 02:45:42;;;;;;;0.50;0.47;;;;;;;27.75;38.43;96542.84;5095688;28;20012;-35
2022/08/24 02:48:09;;;;;;;0.40;0.38;;;;;;;27.84;38.08;96545.91;5095571;28;20028;-34
2022/08/24 02:50:42;;;;;;;0.30;0.30;;;;;;;27.74;38.06;96541.31;5095588;28;20099;-34
2022/08/24 02:53:10;;;;;;;0.85;0.60;;;;;;;27.86;38.24;96537.75;5077335;28;20020;-34
2022/08/24 02:55:38;;;;;;;1.13;0.50;;;;;;;27.69;38.24;96533.84;5095328;28;20420;-34
2022/08/24 02:58:03;;;;;;;0.40;0.40;;;;;;;27.84;37.95;96534.00;5095528;28;20042;-34
2022/08/24 03:00:29;;;;;;;0.50;0.50;;;;;;;27.84;37.96;96529.19;5095320;28;20466;-34
2022/08/24 03:02:56;;;;;;;0.60;0.50;;;;;;;27.83;38.16;96529.72;5095259;28;20020;-34
2022/08/24 03:05:23;;;;;;;0.95;0.40;;;;;;;27.80;38.16;96533.63;5095197;28;20058;-35
2022/08/24 03:07:48;;;;;;;0.60;0.60;;;;;;;27.79;38.59;96526.53;5095401;28;20456;-34
2022/08/24 03:10:14;;;;;;;1.33;0.50;;;;;;;27.85;37.98;96519.53;5095437;28;20024;-34
2022/08/24 03:12:40;;;;;;;0.47;0.47;;;;;;;27.89;38.08;96519.97;5095082;28;20024;-34
2022/08/24 03:15:09;;;;;;;0.60;0.60;;;;;;;27.86;37.91;96525.88;5095185;28;20432;-34
2022/08/24 03:17:35;;;;;;;1.17;0.60;;;;;;;27.86;38.34;96531.44;5094851;28;20103;-34
2022/08/24 03:20:03;;;;;;;0.70;0.50;;;;;;;27.80;38.53;96523.22;5094842;28;20024;-34
2022/08/24 03:22:28;;;;;;;1.02;0.65;;;;;;;27.63;38.66;96525.59;5094833;28;20070;-34
2022/08/24 03:24:54;;;;;;;0.50;0.40;;;;;;;27.77;38.32;96524.28;5094885;28;20016;-34
2022/08/24 03:27:19;;;;;;;2.67;0.65;;;;;;;27.70;38.46;96536.06;5094784;28;20024;-34
2022/08/24 03:29:45;;;;;;;1.58;0.60;;;;;;;27.71;38.49;96528.47;5095057;28;20046;-34
2022/08/24 03:32:10;;;;;;;0.88;0.50;;;;;;;27.78;38.37;96536.19;5094788;28;20035;-34
2022/08/24 03:34:36;;;;;;;0.32;0.32;;;;;;;27.76;38.34;96530.41;5094486;28;20025;-35
2022/08/24 03:37:03;;;;;;;0.50;0.38;;;;;;;27.76;38.37;96541.53;5094829;28;20105;-34
2022/08/24 03:39:29;;;;;;;1.98;0.68;;;;;;;27.74;38.75;96530.19;5094628;28;20374;-34
2022/08/24 03:41:54;;;;;;;0.73;0.50;;;;;;;27.77;38.40;96529.84;5094696;28;20470;-34
2022/08/24 03:44:20;;;;;;;0.50;0.50;;;;;;;27.82;38.15;96525.44;5094464;28;20040;-34
2022/08/24 03:46:45;;;;;;;0.50;0.50;;;;;;;27.78;38.31;96531.38;5094398;28;20024;-34
2022/08/24 03:49:13;;;;;;;0.40;0.40;;;;;;;27.80;38.25;96528.78;5094417;28;20031;-35
2022/08/24 03:51:38;;;;;;;0.98;0.50;;;;;;;27.75;38.38;96534.47;5094533;28;20037;-34
2022/08/24 03:54:06;;;;;;;2.63;0.60;;;;;;;27.77;38.45;96527.06;5094493;28;20024;-34
2022/08/24 03:56:32;;;;;;;0.65;0.50;;;;;;;27.81;38.39;96535.13;5094233;28;20030;-35
2022/08/24 03:58:57;;;;;;;1.95;0.57;;;;;;;27.78;38.54;96528.56;5094249;28;20026;-34
2022/08/24 04:01:23;;;;;;;0.95;0.60;;;;;;;27.81;38.69;96529.53;5094535;28;20024;-34
2022/08/24 04:03:52;;;;;;;1.63;0.50;;;;;;;27.82;38.37;96542.16;5094432;28;20016;-35
2022/08/24 04:06:18;;;;;;;0.73;0.50;;;;;;;27.75;38.89;96537.25;5093921;28;20535;-35
2022/08/24 04:08:44;;;;;;;1.35;0.50;;;;;;;27.74;38.86;96538.53;5094253;28;20532;-34
2022/08/24 04:11:16;;;;;;;1.90;0.50;;;;;;;27.81;38.79;96538.66;5094164;28;20047;-34
2022/08/24 04:13:42;;;;;;;0.50;0.40;;;;;;;27.75;38.63;96542.84;5083511;28;20107;-34
2022/08/24 04:16:11;;;;;;;0.60;0.40;;;;;;;27.80;38.55;96544.75;5072217;28;20115;-34
2022/08/24 04:18:38;;;;;;;0.75;0.50;;;;;;;27.73;38.76;96550.97;5072275;28;20024;-34
2022/08/24 04:21:04;;;;;;;1.95;0.50;;;;;;;27.74;38.82;96541.31;5070711;28;20093;-34
2022/08/24 04:23:30;;;;;;;0.98;0.60;;;;;;;27.79;38.39;96557.19;5072285;28;20021;-34
2022/08/24 04:26:02;;;;;;;0.80;0.50;;;;;;;27.81;38.41;96560.94;5071945;28;20024;-34
2022/08/24 04:28:28;;;;;;;1.83;0.60;;;;;;;27.68;38.75;96555.41;5072084;28;20107;-34
2022/08/24 04:30:53;;;;;;;0.65;0.50;;;;;;;27.73;39.09;96556.53;5071859;28;20447;-34
2022/08/24 04:33:19;;;;;;;1.45;0.68;;;;;;;27.70;39.10;96554.81;5072078;28;20024;-34
2022/08/24 04:35:47;;;;;;;1.63;0.50;;;;;;;27.73;38.55;96579.59;5071836;28;20036;-34
2022/08/24 04:38:14;;;;;;;2.35;0.50;;;;;;;27.78;38.72;96570.38;5071761;28;20025;-34
2022/08/24 04:40:42;;;;;;;0.73;0.50;;;;;;;27.75;38.87;96581.84;5071858;28;20048;-34
2022/08/24 04:43:08;;;;;;;0.40;0.40;;;;;;;27.78;38.56;96583.56;5071761;28;20552;-34
2022/08/24 04:45:38;;;;;;;0.88;0.52;;;;;;;27.82;38.70;96593.06;5071756;28;20063;-34
2022/08/24 04:48:04;;;;;;;0.50;0.40;;;;;;;27.79;38.80;96588.59;5064760;28;20355;-34
2022/08/24 04:50:34;;;;;;;0.63;0.52;;;;;;;27.81;38.98;96588.81;5093708;28;20035;-35
2022/08/24 04:53:00;;;;;;;1.88;0.50;;;;;;;27.75;38.71;96587.41;5093912;28;20024;-34
2022/08/24 04:55:26;;;;;;;1.60;0.70;;;;;;;27.78;39.00;96587.09;5093354;28;20024;-35
2022/08/24 04:57:51;;;;;;;0.50;0.40;;;;;;;27.76;39.14;96586.88;5092964;28;20488;-34
2022/08/24 05:00:17;;;;;;;0.90;0.70;;;;;;;27.80;39.06;96589.34;5093327;28;20046;-35
2022/08/24 05:02:42;;;;;;;0.77;0.50;;;;;;;27.79;39.06;96587.84;5093372;28;20454;-34
2022/08/24 05:05:09;;;;;;;1.25;0.52;;;;;;;27.81;38.94;96591.59;5093273;28;20021;-35
2022/08/24 05:07:36;;;;;;;2.15;0.90;;;;;;;27.77;38.95;96591.16;5093224;28;20527;-34
2022/08/24 05:10:02;;;;;;;0.90;0.50;;;;;;;27.82;38.69;96592.31;5093306;28;20580;-35
2022/08/24 05:12:27;;;;;;;5.97;0.77;;;;;;;27.76;38.68;96591.69;5093193;28;20024;-34
2022/08/24 05:14:53;;;;;;;1.20;0.63;;;;;;;27.80;39.01;96594.94;5093159;28;20024;-34
2022/08/24 05:17:18;;;;;;;1.02;0.68;;;;;;;27.69;38.92;96600.72;5093137;28;20027;-35
2022/08/24 05:19:44;;;;;;;0.90;0.70;;;;;;;27.77;38.91;96599.53;5092116;28;20032;-34
2022/08/24 05:22:09;;;;;;;1.08;0.73;;;;;;;27.70;38.97;96604.97;5091668;28;20035;-34
2022/08/24 05:24:35;;;;;;;1.85;0.70;;;;;;;27.75;39.12;96607.66;5093107;28;20074;-34
2022/08/24 05:27:00;;;;;;;0.55;0.40;;;;;;;27.79;38.91;96610.16;5092157;28;20497;-35
2022/08/24 05:29:26;;;;;;;1.75;0.60;;;;;;;27.75;38.85;96612.50;5092224;28;20020;-34
2022/08/24 05:31:52;;;;;;;1.00;0.70;;;;;;;27.76;38.92;96605.63;5092263;28;20039;-34
2022/08/24 05:34:18;;;;;;;1.52;0.60;;;;;;;27.68;38.97;96616.69;5092539;28;20020;-34
2022/08/24 05:36:44;;;;;;;1.90;0.70;;;;;;;27.74;38.68;96619.34;5093007;28;20382;-34
2022/08/24 05:39:12;;;;;;;1.50;0.70;;;;;;;27.78;38.97;96626.13;5092580;28;20028;-34
2022/08/24 05:41:40;;;;;;;0.63;0.50;;;;;;;27.74;39.09;96622.13;5092847;28;20020;-34
2022/08/24 05:44:06;;;;;;;0.80;0.50;;;;;;;27.77;39.04;96632.22;5074751;28;20044;-34
2022/08/24 05:46:31;;;;;;;2.05;0.73;;;;;;;27.73;38.98;96634.56;5093073;28;20534;-35
2022/08/24 05:48:58;;;;;;;1.65;0.70;;;;;;;27.75;38.69;96626.44;5093553;28;20434;-34
2022/08/24 05:51:24;;;;;;;1.25;0.90;;;;;;;27.73;39.12;96635.31;5093037;28;20043;-34
2022/08/24 05:53:50;;;;;;;1.88;0.55;;;;;;;27.70;39.03;96622.44;5092927;28;20068;-35
2022/08/24 05:56:18;;;;;;;1.90;0.70;;;;;;;27.77;38.86;96618.28;5092812;28;20506;-36
2022/08/24 05:58:45;;;;;;;1.17;0.65;;;;;;;27.76;39.03;96623.09;5092840;28;20023;-34
2022/08/24 06:01:19;;;;;;;1.10;0.45;;;;;;;27.74;39.23;96631.25;5092621;28;20485;-34
2022/08/24 06:03:46;;;;;;;1.05;0.70;;;;;;;27.76;39.20;96634.25;5093029;28;20069;-34
2022/08/24 06:06:12;;;;;;;0.65;0.60;;;;;;;27.70;39.29;96630.06;5092825;28;20023;-34
2022/08/24 06:08:41;;;;;;;0.65;0.40;;;;;;;27.78;38.93;96636.50;5093107;28;20032;-35
2022/08/24 06:11:08;;;;;;;1.42;0.60;;;;;;;27.74;39.16;96653.53;5095778;28;20470;-35
2022/08/24 06:13:34;;;;;;;2.35;0.70;;;;;;;27.77;39.22;96640.56;5089476;28;20032;-34
2022/08/24 06:16:10;;;;;;;1.45;0.70;;;;;;;27.75;39.04;96641.09;5073160;28;20035;-34
2022/08/24 06:18:37;;;;;;;1.30;0.85;;;;;;;27.79;38.88;96644.34;5096235;28;20075;-34
2022/08/24 06:21:04;;;;;;;2.65;1.08;;;;;;;27.75;38.87;96638.31;5096176;28;20020;-34
2022/08/24 06:23:30;;;;;;;3.90;0.88;;;;;;;27.70;39.15;96652.34;5096199;28;20466;-34
2022/08/24 06:28:41;;;;;;;3.33;0.73;;;;;;;27.76;39.29;96653.75;5096631;28;20059;-34
2022/08/24 06:31:07;;;;;;;2.80;0.93;;;;;;;27.76;39.14;96644.66;5089967;28;20040;-34
2022/08/24 06:33:33;;;;;;;1.10;0.73;;;;;;;27.75;39.19;96654.28;5078472;28;20032;-34
2022/08/24 06:35:58;;;;;;;4.88;0.82;;;;;;;27.70;39.32;96657.94;5081279;28;20095;-35
2022/08/24 06:38:24;;;;;;;2.60;0.82;;;;;;;27.69;39.48;96653.66;5095818;28;20028;-34
2022/08/24 06:40:49;;;;;;;2.58;0.85;;;;;;;27.73;39.36;96651.28;5095976;28;20031;-35
2022/08/24 06:43:15;;;;;;;3.45;0.90;;;;;;;27.73;39.08;96659.66;5094372;28;20047;-34
2022/08/24 06:45:41;;;;;;;3.20;0.60;;;;;;;27.69;39.19;96650.88;5094825;28;20027;-35
2022/08/24 06:48:07;;;;;;;3.80;0.93;;;;;;;27.67;39.41;96643.06;5092778;28;20016;-34
2022/08/24 06:50:33;;;;;;;3.17;0.80;;;;;;;27.66;39.46;96654.72;5095240;28;20020;-34
2022/08/24 06:53:00;;;;;;;2.95;0.90;;;;;;;27.71;39.30;96656.66;5095501;28;20028;-34
2022/08/24 06:55:26;;;;;;;5.72;1.05;;;;;;;27.76;39.01;96644.66;5095686;28;20451;-34
2022/08/24 06:57:52;;;;;;;2.97;0.80;;;;;;;27.76;39.03;96644.66;5095681;28;20684;-34
2022/08/24 07:00:17;;;;;;;1.73;0.63;;;;;;;27.75;39.13;96637.56;5077507;28;20055;-35
2022/08/24 07:02:43;;;;;;;2.97;0.70;;;;;;;27.75;39.38;96645.94;5077120;28;20027;-34
2022/08/24 07:05:08;;;;;;;2.28;0.80;;;;;;;27.75;39.52;96645.94;5095682;28;20024;-34
2022/08/24 07:07:34;;;;;;;2.97;0.75;;;;;;;27.76;39.11;96644.66;5095452;28;20095;-36
2022/08/24 07:10:00;;;;;;;2.53;0.70;;;;;;;27.52;39.70;96642.81;5095277;28;20035;-34
2022/08/24 07:12:26;;;;;;;1.65;0.77;;;;;;;27.72;39.21;96647.75;5095311;28;20016;-34
2022/08/24 07:14:52;;;;;;;2.72;0.70;;;;;;;27.73;39.16;96649.25;5095327;28;20480;-34
2022/08/24 07:17:17;;;;;;;2.75;0.80;;;;;;;27.73;39.20;96645.72;5095130;28;20020;-34
2022/08/24 07:19:44;;;;;;;2.67;0.68;;;;;;;27.75;39.19;96643.16;5094769;28;20527;-35
2022/08/24 07:22:12;;;;;;;2.50;0.80;;;;;;;27.77;39.70;96646.16;5094487;28;20492;-34
2022/08/24 07:24:38;;;;;;;1.83;0.63;;;;;;;27.63;39.74;96645.41;5094928;28;20031;-35
2022/08/24 07:27:04;;;;;;;1.60;0.90;;;;;;;27.71;39.39;96653.84;5094902;28;20024;-35
2022/08/24 07:29:30;;;;;;;1.25;0.55;;;;;;;27.67;39.35;96647.88;5095088;28;20028;-34
2022/08/24 07:31:56;;;;;;;2.40;0.60;;;;;;;27.63;39.56;96650.22;5094901;28;20015;-34
2022/08/24 07:34:22;;;;;;;1.00;0.75;;;;;;;27.76;39.28;96653.00;5083080;28;20035;-34
2022/08/24 07:36:49;;;;;;;1.63;0.60;;;;;;;27.70;39.30;96647.53;5073717;28;20036;-34
2022/08/24 07:39:15;;;;;;;1.55;0.60;;;;;;;27.75;39.42;96648.72;5074145;28;20052;-34
2022/08/24 07:41:43;;;;;;;2.13;0.90;;;;;;;27.75;39.65;96655.03;5074415;28;20020;-35
2022/08/24 07:44:11;;;;;;;0.85;0.52;;;;;;;27.62;39.63;96648.72;5074370;28;20040;-34
2022/08/24 07:46:38;;;;;;;2.20;0.70;;;;;;;27.63;39.91;96647.44;5074102;28;20394;-35
2022/08/24 07:49:06;;;;;;;2.05;1.08;;;;;;;27.53;39.86;96645.06;5075890;28;20024;-34
2022/08/24 07:51:32;;;;;;;1.75;0.60;;;;;;;27.42;40.30;96645.25;5079740;28;20028;-34
2022/08/24 07:53:57;;;;;;;4.95;1.15;;;;;;;27.41;40.26;96638.19;5081641;28;20401;-34
2022/08/24 07:56:23;;;;;;;2.97;0.70;;;;;;;26.98;41.18;96637.66;5074257;28;20028;-34
2022/08/24 07:58:48;;;;;;;1.95;0.70;;;;;;;27.04;40.96;96635.56;5074087;28;20033;-34
2022/08/24 08:01:14;;;;;;;1.40;0.50;;;;;;;27.09;41.11;96640.25;5073865;28;20024;-34
2022/08/24 08:03:40;;;;;;;2.72;0.82;;;;;;;27.39;40.09;96635.19;5073972;28;20475;-34
2022/08/24 08:06:08;;;;;;;1.85;1.00;;;;;;;27.52;40.09;96631.66;5074074;28;20021;-34
2022/08/24 08:08:38;;;;;;;5.05;0.95;;;;;;;27.57;40.12;96624.53;5073641;28;20058;-34
2022/08/24 08:11:04;;;;;;;2.83;0.90;;;;;;;27.56;39.99;96626.56;5074081;28;20032;-34
2022/08/24 08:13:30;;;;;;;2.15;0.70;;;;;;;27.69;39.34;96620.97;5073700;28;20475;-35
2022/08/24 08:15:58;;;;;;;3.08;0.70;;;;;;;27.69;39.39;96629.34;5073821;28;20033;-34
2022/08/24 08:18:24;;;;;;;2.67;0.80;;;;;;;27.48;40.36;96625.66;5073714;28;20025;-34
2022/08/24 08:20:49;;;;;;;2.72;0.70;;;;;;;27.55;39.98;96633.38;5073573;28;20082;-34
2022/08/24 08:26:00;;;;;;;1.38;0.60;;;;;;;27.71;39.58;96631.56;5073481;28;20040;-35
2022/08/24 08:28:31;;;;;;;2.83;0.77;;;;;;;27.67;39.50;96631.91;5073715;28;20034;-34
2022/08/24 08:30:58;;;;;;;1.20;0.70;;;;;;;27.78;39.70;96630.94;5073452;28;20028;-34
2022/08/24 08:33:24;;;;;;;2.03;0.60;;;;;;;27.43;39.74;96634.88;5072829;28;20028;-34
2022/08/24 08:35:55;;;;;;;1.10;0.55;;;;;;;27.04;40.20;96630.00;5073337;28;20112;-35
2022/08/24 08:38:20;;;;;;;3.50;0.75;;;;;;;27.06;40.55;96633.00;5073864;28;20036;-34
2022/08/24 08:41:07;;;;;;;1.77;0.60;;;;;;;27.53;40.06;96617.19;5073476;28;20031;-34
2022/08/24 08:43:40;;;;;;;4.15;0.98;;;;;;;27.58;39.78;96632.31;5073041;28;20052;-34
2022/08/24 08:46:05;;;;;;;1.30;0.60;;;;;;;27.26;39.94;96624.03;5073519;28;20048;-34
2022/08/24 08:48:46;;;;;;;1.55;0.50;;;;;;;27.28;39.68;96634.63;5073389;28;20029;-34
2022/08/24 08:51:31;;;;;;;1.77;0.75;;;;;;;27.35;39.58;96634.75;5073230;28;20513;-34
2022/08/24 08:54:28;;;;;;;2.17;0.65;;;;;;;27.32;39.69;96630.25;5073420;28;20083;-34
2022/08/24 08:57:05;;;;;;;2.53;0.63;;;;;;;27.42;39.29;96636.91;5073094;28;20032;-34
2022/08/24 08:59:43;;;;;;;0.95;0.70;;;;;;;27.37;39.35;96628.63;5072876;28;20032;-35
2022/08/24 09:02:09;;;;;;;1.63;0.90;;;;;;;27.35;39.42;96625.63;5073049;28;20116;-34
2022/08/24 09:04:40;;;;;;;1.33;0.80;;;;;;;27.44;38.78;96628.78;5072968;28;20056;-35
2022/08/24 09:07:36;;;;;;;0.82;0.65;;;;;;;26.99;40.04;96630.81;5073065;28;20028;-35
2022/08/24 09:10:08;;;;;;;1.55;0.70;;;;;;;27.13;39.46;96626.78;5073297;28;20025;-34
2022/08/24 09:12:51;;;;;;;1.50;0.57;;;;;;;26.98;40.15;96627.28;5073244;28;20031;-34
2022/08/24 09:16:04;;;;;;;2.60;0.97;;;;;;;27.08;39.53;96633.19;5073006;28;20029;-34
2022/08/24 09:18:44;;;;;;;1.67;0.50;;;;;;;27.08;39.68;96624.84;5011118;28;20477;-34
2022/08/24 09:21:45;;;;;;;1.00;0.60;;;;;;;26.90;39.97;96634.75;5011282;28;20029;-34
2022/08/24 09:24:52;;;;;;;2.58;0.50;;;;;;;27.11;38.76;96630.09;5006795;28;20551;-34
2022/08/24 09:27:43;;;;;;;1.25;0.52;;;;;;;27.01;39.29;96636.63;5010402;28;20026;-34
2022/08/24 09:30:20;;;;;;;1.30;0.47;;;;;;;27.18;39.25;96634.31;5011332;28;20036;-36
2022/08/24 09:33:01;;;;;;;1.40;0.68;;;;;;;27.54;38.56;96635.41;5011133;28;20038;-34
2022/08/24 09:36:07;;;;;;;1.83;0.60;;;;;;;27.26;38.69;96632.38;5011096;28;20030;-35
2022/08/24 09:38:50;;;;;;;2.45;0.60;;;;;;;27.67;38.15;96639.50;5011139;28;20048;-34
2022/08/24 09:41:28;;;;;;;1.65;0.60;;;;;;;27.44;38.72;96630.81;5011247;28;20054;-34
2022/08/24 09:44:18;;;;;;;3.20;0.73;;;;;;;27.68;38.37;96638.22;5012091;28;20046;-35
2022/08/24 09:46:49;;;;;;;2.30;0.73;;;;;;;27.54;39.35;96632.63;5014743;28;20112;-34
2022/08/24 09:49:47;;;;;;;1.80;0.77;;;;;;;27.56;39.11;96626.56;5045367;28;20120;-34
2022/08/24 09:52:37;;;;;;;0.75;0.60;;;;;;;27.76;38.64;96620.31;5031911;28;20036;-35
2022/08/24 09:55:34;;;;;;;0.95;0.60;;;;;;;27.81;38.87;96632.66;5058549;28;20035;-34
2022/08/24 09:58:11;;;;;;;2.38;0.65;;;;;;;27.82;38.81;96620.94;5076358;28;20024;-34
2022/08/24 10:00:46;;;;;;;0.77;0.60;;;;;;;27.80;38.83;96622.78;5076449;28;20089;-34
2022/08/24 10:03:38;;;;;;;0.70;0.55;;;;;;;27.77;38.89;96612.72;5076189;28;20060;-34
2022/08/24 10:06:24;;;;;;;1.75;0.80;;;;;;;27.74;39.15;96617.31;5076118;28;20024;-34
2022/08/24 10:09:09;;;;;;;1.30;0.52;;;;;;;27.52;39.53;96615.69;5076255;28;20036;-34
2022/08/24 10:11:44;;;;;;;1.73;0.50;;;;;;;27.81;38.80;96611.09;5075930;28;20047;-34
2022/08/24 10:14:32;;;;;;;1.60;0.85;;;;;;;27.87;38.79;96610.97;5075981;28;20032;-34
2022/08/24 10:17:12;;;;;;;1.23;0.63;;;;;;;27.88;38.64;96609.69;5076301;28;20028;-34
2022/08/24 10:20:10;;;;;;;1.20;0.60;;;;;;;27.85;38.66;96611.50;5076129;28;20032;-34
2022/08/24 10:22:54;;;;;;;0.88;0.50;;;;;;;27.82;39.05;96609.78;5068512;28;20040;-35
2022/08/24 10:25:37;;;;;;;0.95;0.63;;;;;;;27.86;38.71;96606.69;5075975;28;20067;-34
2022/08/24 10:28:43;;;;;;;1.23;0.70;;;;;;;27.98;38.46;96607.97;5075678;28;20355;-34
2022/08/24 10:31:10;;;;;;;1.55;0.68;;;;;;;27.98;38.40;96605.16;5060549;28;20031;-34
2022/08/24 10:34:00;;;;;;;1.20;0.50;;;;;;;28.00;38.55;96604.63;5075658;28;20020;-34
2022/08/24 10:36:41;;;;;;;1.10;0.70;;;;;;;27.99;38.45;96601.09;5075564;28;20028;-35
2022/08/24 10:39:40;;;;;;;0.85;0.57;;;;;;;28.02;38.12;96600.03;5075789;28;20425;-34
2022/08/24 10:45:26;;;;;;;1.73;0.57;;;;;;;28.03;38.41;96595.94;5075795;28;20032;-34
2022/08/24 10:48:15;;;;;;;2.55;0.70;;;;;;;28.05;38.33;96590.59;5075350;28;20064;-34
2022/08/24 10:51:08;;;;;;;3.22;0.60;;;;;;;28.06;38.19;96583.72;5075419;28;20038;-34
2022/08/24 10:53:34;;;;;;;2.92;0.82;;;;;;;28.05;38.09;96589.84;5075429;28;20020;-34
2022/08/24 10:56:07;;;;;;;2.85;0.60;;;;;;;28.02;38.10;96594.44;5074329;28;20028;-34
2022/08/24 10:58:55;;;;;;;2.35;0.50;;;;;;;28.08;38.11;96592.28;5075354;28;20056;-34
2022/08/24 11:01:33;;;;;;;1.75;0.60;;;;;;;28.03;38.12;96601.53;5075532;28;20052;-34
2022/08/24 11:04:12;;;;;;;3.22;0.50;;;;;;;28.08;38.43;96602.69;5075441;28;20024;-35
2022/08/24 11:06:41;;;;;;;2.10;0.73;;;;;;;28.11;37.90;96599.56;5075103;28;20025;-34
2022/08/24 11:09:13;;;;;;;2.10;0.80;;;;;;;28.10;37.91;96600.84;5075107;28;20021;-34
2022/08/24 11:11:47;;;;;;;2.25;0.70;;;;;;;28.00;38.28;96602.59;5074942;28;20029;-34
2022/08/24 11:14:26;;;;;;;2.03;0.70;;;;;;;28.09;38.18;96596.56;5057036;28;20425;-35
2022/08/24 11:16:52;;;;;;;1.55;0.60;;;;;;;28.12;37.69;96603.09;5074874;28;20032;-34
2022/08/24 11:19:26;;;;;;;1.75;0.75;;;;;;;28.14;38.00;96598.50;5074702;28;20021;-34
2022/08/24 11:21:57;;;;;;;1.60;0.88;;;;;;;28.12;37.85;96603.84;5074782;28;20390;-35
2022/08/24 11:24:25;;;;;;;2.85;0.70;;;;;;;28.11;37.73;96607.19;5074729;28;20458;-34
2022/08/24 11:26:59;;;;;;;2.45;0.80;;;;;;;28.20;37.57;96604.72;5074735;28;20134;-34
2022/08/24 11:29:50;;;;;;;1.45;0.70;;;;;;;28.19;37.46;96603.22;5074688;28;20127;-35
2022/08/24 11:32:56;;;;;;;0.93;0.70;;;;;;;28.17;37.81;96610.59;5065288;28;20029;-34
2022/08/24 11:35:30;;;;;;;1.02;0.65;;;;;;;28.17;37.57;96600.22;4986024;28;20046;-35
2022/08/24 11:38:06;;;;;;;2.05;0.60;;;;;;;28.11;37.85;96607.94;5074351;28;20047;-34
2022/08/24 11:40:38;;;;;;;2.03;0.60;;;;;;;28.11;37.80;96604.41;5074409;28;20489;-34
2022/08/24 11:43:36;;;;;;;2.05;0.60;;;;;;;28.20;37.68;96610.28;5074147;28;20128;-34
2022/08/24 11:46:01;;;;;;;1.08;0.75;;;;;;;28.20;37.75;96603.97;5074248;28;20020;-34
2022/08/24 11:48:27;;;;;;;1.25;0.60;;;;;;;28.27;37.36;96608.13;5074401;28;20021;-34
2022/08/24 11:51:02;;;;;;;4.07;0.68;;;;;;;28.28;37.47;96604.81;5074451;28;20028;-34
2022/08/24 11:54:05;;;;;;;0.80;0.50;;;;;;;28.29;37.46;96611.16;5074312;28;20386;-34
2022/08/24 11:56:38;;;;;;;1.10;0.50;;;;;;;28.26;37.27;96601.81;5074367;28;20097;-34
2022/08/24 11:59:35;;;;;;;2.03;1.20;;;;;;;28.15;37.48;96610.41;5073990;28;20025;-34
2022/08/24 12:02:10;;;;;;;3.45;2.00;;;;;;;28.03;37.59;96609.88;5069890;28;20040;-35
2022/08/24 12:04:56;;;;;;;2.70;1.65;;;;;;;28.13;37.49;96607.41;5073884;28;21412;-35